Time;durP1;ratioP1;P1;durP2;ratioP2;P2;SDS_P1;SDS_P2;PMS_P1;PMS_P2;Temp;Humidity;BMP_temperature;BMP_pressure;BME280_temperature;BME280_humidity;BME280_pressure;Samples;Min_cycle;Max_cycle;Signal;HPM_P1;HPM_P2
2022/11/12 00:00:51;;;;;;;;;;;11.50;94.70;;;;;;5001360;28;1911;-76
2022/11/12 00:03:20;;;;;;;;;;;11.50;94.50;;;;;;5003256;28;1456;-75
2022/11/12 00:05:48;;;;;;;;;;;11.50;94.50;;;;;;5003331;28;1695;-74
2022/11/12 00:08:16;;;;;;;;;;;11.40;94.50;;;;;;4997090;28;1428;-76
2022/11/12 00:10:44;;;;;;;;;;;11.50;94.60;;;;;;5002804;28;1048;-76
2022/11/12 00:13:12;;;;;;;;;;;11.50;94.60;;;;;;5001575;28;1294;-76
2022/11/12 00:15:39;;;;;;;;;;;11.50;94.60;;;;;;5004557;28;1156;-76
2022/11/12 00:18:07;;;;;;;;;;;11.40;94.50;;;;;;5005855;28;985;-75
2022/11/12 00:20:36;;;;;;;;;;;11.40;94.50;;;;;;4999500;28;1981;-75
2022/11/12 00:23:04;;;;;;;;;;;11.50;94.40;;;;;;4997974;28;1454;-73
2022/11/12 00:25:31;;;;;;;;;;;11.40;94.40;;;;;;5003498;28;1125;-74
2022/11/12 00:28:03;;;;;;;;;;;11.40;94.40;;;;;;5003047;28;1726;-74
2022/11/12 00:30:30;;;;;;;;;;;11.50;94.30;;;;;;5005561;28;1098;-74
2022/11/12 00:33:01;;;;;;;;;;;11.50;94.40;;;;;;5024907;28;1273;-74
2022/11/12 00:35:29;;;;;;;;;;;11.40;94.40;;;;;;5011295;28;1704;-75
2022/11/12 00:37:58;;;;;;;;;;;11.50;94.30;;;;;;5007344;28;1723;-74
2022/11/12 00:40:26;;;;;;;;;;;11.50;94.10;;;;;;5004918;28;1675;-74
2022/11/12 00:42:54;;;;;;;;;;;11.40;93.90;;;;;;5003869;28;1992;-74
2022/11/12 00:45:21;;;;;;;;;;;11.40;94.00;;;;;;5008668;28;1058;-74
2022/11/12 00:47:49;;;;;;;;;;;11.40;93.80;;;;;;5002417;28;982;-74
2022/11/12 00:50:16;;;;;;;;;;;11.40;93.60;;;;;;4999006;28;1061;-74
2022/11/12 00:52:44;;;;;;;;;;;11.40;93.60;;;;;;4999740;28;1413;-76
2022/11/12 00:55:13;;;;;;;;;;;11.40;93.60;;;;;;5006328;28;1048;-75
2022/11/12 00:57:41;;;;;;;;;;;11.20;93.50;;;;;;5005960;28;1504;-74
2022/11/12 01:00:14;;;;;;;;;;;11.30;93.70;;;;;;4999814;28;1587;-70
2022/11/12 01:02:42;;;;;;;;;;;11.30;93.50;;;;;;5005517;28;1910;-72
2022/11/12 01:05:17;;;;;;;;;;;11.30;93.50;;;;;;5003436;28;1559;-72
2022/11/12 01:07:44;;;;;;;;;;;11.40;93.80;;;;;;4999991;28;1108;-72
2022/11/12 01:10:14;;;;;;;;;;;11.40;93.30;;;;;;5002864;28;1076;-73
2022/11/12 01:12:41;;;;;;;;;;;11.40;93.40;;;;;;5004160;28;1387;-73
2022/11/12 01:15:09;;;;;;;;;;;11.30;93.00;;;;;;5005455;28;1027;-73
2022/11/12 01:17:37;;;;;;;;;;;11.40;93.00;;;;;;5000244;28;1086;-73
2022/11/12 01:20:05;;;;;;;;;;;11.50;92.90;;;;;;5003257;28;1153;-73
2022/11/12 01:22:32;;;;;;;;;;;11.40;92.90;;;;;;5003592;28;1985;-74
2022/11/12 01:25:00;;;;;;;;;;;11.40;92.80;;;;;;5008228;28;1176;-74
2022/11/12 01:27:29;;;;;;;;;;;11.40;92.80;;;;;;5004506;28;1085;-74
2022/11/12 01:29:56;;;;;;;;;;;11.50;92.70;;;;;;4998783;28;1121;-75
2022/11/12 01:32:24;;;;;;;;;;;11.50;92.70;;;;;;5001424;28;1390;-74
2022/11/12 01:34:52;;;;;;;;;;;11.50;92.40;;;;;;4998571;28;1022;-75
2022/11/12 01:37:19;;;;;;;;;;;11.50;92.40;;;;;;5005410;28;1073;-75
2022/11/12 01:39:47;;;;;;;;;;;11.60;92.30;;;;;;5002235;28;1662;-74
2022/11/12 01:42:15;;;;;;;;;;;11.50;92.30;;;;;;4998955;28;1939;-73
2022/11/12 01:44:45;;;;;;;;;;;11.50;92.50;;;;;;5002754;28;1402;-72
2022/11/12 01:47:14;;;;;;;;;;;11.50;92.10;;;;;;4997493;28;1027;-72
2022/11/12 01:49:44;;;;;;;;;;;11.50;92.10;;;;;;5003677;28;1069;-73
2022/11/12 01:52:21;;;;;;;;;;;11.50;92.00;;;;;;4999610;28;1310;-74
2022/11/12 01:54:50;;;;;;;;;;;11.50;92.00;;;;;;5005997;28;1101;-74
2022/11/12 01:57:18;;;;;;;;;;;11.50;92.00;;;;;;5003738;28;1395;-74
2022/11/12 01:59:48;;;;;;;;;;;11.60;91.90;;;;;;5005536;28;1141;-74
2022/11/12 02:02:16;;;;;;;;;;;11.60;91.80;;;;;;5006778;28;1902;-74
2022/11/12 02:04:44;;;;;;;;;;;11.60;91.70;;;;;;5003541;28;1073;-74
2022/11/12 02:07:12;;;;;;;;;;;11.70;91.90;;;;;;5003190;28;1014;-72
2022/11/12 02:09:39;;;;;;;;;;;11.70;91.70;;;;;;5003439;28;1088;-72
2022/11/12 02:13:56;;;;;;;;;;;11.70;91.70;;;;;;5000605;28;1390;-72
2022/11/12 02:18:11;;;;;;;;;;;11.60;91.60;;;;;;5678586;22;2058;-72
2022/11/12 02:20:40;;;;;;;;;;;11.50;91.60;;;;;;5026101;28;1163;-71
2022/11/12 02:23:09;;;;;;;;;;;11.40;91.70;;;;;;5025050;28;1906;-72
2022/11/12 02:25:36;;;;;;;;;;;11.30;91.90;;;;;;5020477;28;1168;-71
2022/11/12 02:28:06;;;;;;;;;;;11.20;92.00;;;;;;5021112;28;1106;-71
2022/11/12 02:30:35;;;;;;;;;;;11.10;92.20;;;;;;5023314;28;1060;-71
2022/11/12 02:33:02;;;;;;;;;;;10.90;92.20;;;;;;5022561;28;1300;-71
2022/11/12 02:35:30;;;;;;;;;;;10.80;92.40;;;;;;5022527;28;1160;-71
2022/11/12 02:37:58;;;;;;;;;;;10.70;92.50;;;;;;5020946;28;1018;-74
2022/11/12 02:40:27;;;;;;;;;;;10.60;92.60;;;;;;5039132;28;1216;-74
2022/11/12 02:42:54;;;;;;;;;;;10.60;92.70;;;;;;5020414;28;2353;-74
2022/11/12 02:45:22;;;;;;;;;;;10.50;92.90;;;;;;5022107;28;1101;-73
2022/11/12 02:47:50;;;;;;;;;;;10.40;93.00;;;;;;5023596;28;993;-73
2022/11/12 02:50:18;;;;;;;;;;;10.30;93.20;;;;;;5021795;28;1029;-73
2022/11/12 02:52:45;;;;;;;;;;;10.20;93.30;;;;;;5022889;28;1296;-73
2022/11/12 02:55:13;;;;;;;;;;;10.20;93.60;;;;;;5020774;28;982;-73
2022/11/12 02:57:42;;;;;;;;;;;10.20;93.60;;;;;;5017444;28;1160;-73
2022/11/12 03:00:10;;;;;;;;;;;10.20;93.60;;;;;;5016892;28;1069;-74
2022/11/12 03:02:41;;;;;;;;;;;10.10;93.50;;;;;;5023244;28;1906;-74
2022/11/12 03:05:09;;;;;;;;;;;10.10;93.80;;;;;;5021145;28;1021;-73
2022/11/12 03:07:37;;;;;;;;;;;10.00;93.70;;;;;;5022496;28;994;-74
2022/11/12 03:10:05;;;;;;;;;;;10.00;93.80;;;;;;5022126;28;1073;-72
2022/11/12 03:12:33;;;;;;;;;;;9.90;94.30;;;;;;5016359;28;1553;-72
2022/11/12 03:15:02;;;;;;;;;;;9.80;94.30;;;;;;5024034;28;1303;-72
2022/11/12 03:17:29;;;;;;;;;;;9.80;94.40;;;;;;5023035;28;1228;-72
2022/11/12 03:19:57;;;;;;;;;;;9.80;94.50;;;;;;5020134;28;1059;-72
2022/11/12 03:22:24;;;;;;;;;;;9.70;94.60;;;;;;5016411;28;1902;-72
2022/11/12 03:24:52;;;;;;;;;;;9.60;94.60;;;;;;5016875;28;1856;-73
2022/11/12 03:27:19;;;;;;;;;;;9.60;94.80;;;;;;5025801;28;1533;-74
2022/11/12 03:29:47;;;;;;;;;;;9.60;94.60;;;;;;5023628;28;1068;-71
2022/11/12 03:32:16;;;;;;;;;;;9.60;94.80;;;;;;5023778;28;1308;-72
2022/11/12 03:34:43;;;;;;;;;;;9.50;94.80;;;;;;5016581;28;1005;-72
2022/11/12 03:37:11;;;;;;;;;;;9.50;94.80;;;;;;5016169;28;1089;-71
2022/11/12 03:39:39;;;;;;;;;;;9.50;94.90;;;;;;5016851;28;1144;-71
2022/11/12 03:42:06;;;;;;;;;;;9.50;95.00;;;;;;5022196;28;1350;-72
2022/11/12 03:44:40;;;;;;;;;;;9.40;95.00;;;;;;5024724;28;1979;-71
2022/11/12 03:47:08;;;;;;;;;;;9.40;95.30;;;;;;5014528;28;1084;-73
2022/11/12 03:49:37;;;;;;;;;;;9.20;95.10;;;;;;5020519;28;1076;-73
2022/11/12 03:52:05;;;;;;;;;;;9.20;95.30;;;;;;5021837;28;1291;-73
2022/11/12 03:54:32;;;;;;;;;;;9.20;95.30;;;;;;5022422;28;1244;-73
2022/11/12 03:57:00;;;;;;;;;;;9.20;95.30;;;;;;5022006;28;1179;-74
2022/11/12 03:59:27;;;;;;;;;;;9.10;95.50;;;;;;5016216;28;1090;-78
2022/11/12 04:01:55;;;;;;;;;;;9.10;95.50;;;;;;5019564;28;1533;-74
2022/11/12 04:08:34;;;;;;;;;;;9.10;95.90;;;;;;5020054;28;1910;-75
2022/11/12 04:09:57;;;;;;;;;;;9.00;95.70;;;;;;5023865;28;1462;-72
2022/11/12 04:15:10;;;;;;;;;;;8.90;96.00;;;;;;5021762;28;1126;-72
2022/11/12 04:23:09;;;;;;;;;;;8.80;96.00;;;;;;5022416;28;1883;-72
2022/11/12 04:28:21;;;;;;;;;;;8.70;96.20;;;;;;5022437;28;1021;-72
2022/11/12 04:30:48;;;;;;;;;;;8.70;96.30;;;;;;5015527;28;1279;-72
2022/11/12 04:33:16;;;;;;;;;;;8.70;96.40;;;;;;5020603;28;1379;-72
2022/11/12 04:35:43;;;;;;;;;;;8.60;96.10;;;;;;5018938;28;1102;-72
2022/11/12 04:38:12;;;;;;;;;;;8.50;96.20;;;;;;5017073;28;1048;-72
2022/11/12 04:46:10;;;;;;;;;;;8.40;96.50;;;;;;5029629;28;1025;-72
2022/11/12 04:48:37;;;;;;;;;;;8.40;96.50;;;;;;5037351;28;1021;-72
2022/11/12 04:52:03;;;;;;;;;;;8.40;96.50;;;;;;5005782;28;4246;-71
2022/11/12 04:53:59;;;;;;;;;;;8.30;96.30;;;;;;4996957;28;3032;-72
2022/11/12 04:56:26;;;;;;;;;;;8.20;96.40;;;;;;4998941;28;3911;-71
2022/11/12 04:58:54;;;;;;;;;;;8.20;96.50;;;;;;4997402;28;3839;-71
2022/11/12 05:01:21;;;;;;;;;;;8.20;96.50;;;;;;5001488;28;4403;-71
2022/11/12 05:03:49;;;;;;;;;;;8.10;96.40;;;;;;5004583;28;1902;-72
2022/11/12 05:09:03;;;;;;;;;;;8.00;96.80;;;;;;4999303;28;1009;-72
2022/11/12 05:11:31;;;;;;;;;;;8.00;96.90;;;;;;5006890;28;1268;-73
2022/11/12 05:13:59;;;;;;;;;;;8.00;97.00;;;;;;5005262;28;1048;-73
2022/11/12 05:16:26;;;;;;;;;;;8.00;97.20;;;;;;5003533;28;1005;-72
2022/11/12 05:18:54;;;;;;;;;;;8.00;97.00;;;;;;5003954;28;1075;-73
2022/11/12 05:24:11;;;;;;;;;;;8.00;97.00;;;;;;4999308;28;1918;-72
2022/11/12 05:26:59;;;;;;;;;;;8.00;97.10;;;;;;5003980;28;2330;-73
2022/11/12 05:29:26;;;;;;;;;;;7.90;96.90;;;;;;5002479;28;1122;-73
2022/11/12 05:31:54;;;;;;;;;;;7.80;96.90;;;;;;5002428;28;1304;-73
2022/11/12 05:34:22;;;;;;;;;;;7.80;96.80;;;;;;4993301;28;2928;-73
2022/11/12 05:36:49;;;;;;;;;;;7.80;97.00;;;;;;4999800;28;3800;-73
2022/11/12 05:39:18;;;;;;;;;;;7.70;96.90;;;;;;4989058;28;4328;-72
2022/11/12 05:41:46;;;;;;;;;;;7.70;97.10;;;;;;5013650;28;3124;-75
2022/11/12 05:44:33;;;;;;;;;;;7.70;97.00;;;;;;5016821;28;4084;-74
2022/11/12 05:47:01;;;;;;;;;;;8.00;97.10;;;;;;5012871;28;4353;-76
2022/11/12 05:49:29;;;;;;;;;;;7.60;96.90;;;;;;5028690;28;3903;-76
2022/11/12 05:51:56;;;;;;;;;;;7.60;96.80;;;;;;5017179;28;3625;-73
2022/11/12 05:54:25;;;;;;;;;;;7.60;97.10;;;;;;5027027;28;1005;-73
2022/11/12 05:56:53;;;;;;;;;;;7.60;97.40;;;;;;5023006;28;1204;-72
2022/11/12 05:59:21;;;;;;;;;;;7.60;96.90;;;;;;5018328;28;1350;-74
2022/11/12 06:01:48;;;;;;;;;;;7.50;96.80;;;;;;5023904;28;1269;-72
2022/11/12 06:04:16;;;;;;;;;;;7.50;97.00;;;;;;5025250;28;1911;-72
2022/11/12 06:06:44;;;;;;;;;;;7.40;97.00;;;;;;5024734;28;1219;-68
2022/11/12 06:09:11;;;;;;;;;;;7.30;96.70;;;;;;5021906;28;1935;-65
2022/11/12 06:11:41;;;;;;;;;;;7.20;97.20;;;;;;5018178;28;1927;-65
2022/11/12 06:14:09;;;;;;;;;;;7.00;97.70;;;;;;5023429;28;1020;-64
2022/11/12 06:16:37;;;;;;;;;;;6.90;98.00;;;;;;5020989;28;1026;-64
2022/11/12 06:19:04;;;;;;;;;;;6.90;98.00;;;;;;5028536;28;1290;-65
2022/11/12 06:21:32;;;;;;;;;;;7.10;98.20;;;;;;5025188;28;1415;-65
2022/11/12 06:24:00;;;;;;;;;;;6.80;98.20;;;;;;5024769;28;1980;-65
2022/11/12 06:26:29;;;;;;;;;;;6.70;98.30;;;;;;5023783;28;1136;-65
2022/11/12 06:28:58;;;;;;;;;;;6.60;98.50;;;;;;5013296;28;2662;-65
2022/11/12 06:31:25;;;;;;;;;;;6.60;98.60;;;;;;5021247;28;3917;-65
2022/11/12 06:33:53;;;;;;;;;;;6.60;98.60;;;;;;5019781;28;4524;-65
2022/11/12 06:36:20;;;;;;;;;;;6.60;98.60;;;;;;5025553;28;1274;-65
2022/11/12 06:38:48;;;;;;;;;;;6.60;98.60;;;;;;5023246;28;1191;-64
2022/11/12 06:41:19;;;;;;;;;;;6.60;98.50;;;;;;5025444;28;1300;-65
2022/11/12 06:43:46;;;;;;;;;;;6.40;98.70;;;;;;5004756;28;4241;-64
2022/11/12 06:46:16;;;;;;;;;;;6.60;98.70;;;;;;5003835;28;2022;-64
2022/11/12 06:48:44;;;;;;;;;;;6.50;98.70;;;;;;5003799;28;1286;-64
2022/11/12 06:51:16;;;;;;;;;;;6.40;98.80;;;;;;5005512;28;1395;-73
2022/11/12 06:53:44;;;;;;;;;;;6.50;98.80;;;;;;5010531;28;1338;-71
2022/11/12 06:56:12;;;;;;;;;;;6.70;98.30;;;;;;5021726;28;1127;-71
2022/11/12 06:58:40;;;;;;;;;;;6.70;97.90;;;;;;5007160;28;1147;-72
2022/11/12 07:01:09;;;;;;;;;;;7.00;98.10;;;;;;5004003;28;1369;-71
2022/11/12 07:03:41;;;;;;;;;;;6.80;97.70;;;;;;5006352;28;1839;-71
2022/11/12 07:06:09;;;;;;;;;;;6.80;97.60;;;;;;5008209;28;1898;-71
2022/11/12 07:08:38;;;;;;;;;;;6.80;97.40;;;;;;5002027;28;1843;-71
2022/11/12 07:11:05;;;;;;;;;;;6.80;97.40;;;;;;5006087;28;1328;-72
2022/11/12 07:13:34;;;;;;;;;;;6.80;97.30;;;;;;5005449;28;1179;-70
2022/11/12 07:16:02;;;;;;;;;;;6.80;97.50;;;;;;5005720;28;1116;-71
2022/11/12 07:18:30;;;;;;;;;;;7.00;97.40;;;;;;5007393;28;2009;-71
2022/11/12 07:20:59;;;;;;;;;;;6.90;97.10;;;;;;5005715;28;1311;-70
2022/11/12 07:23:27;;;;;;;;;;;6.80;97.30;;;;;;5005183;28;1628;-71
2022/11/12 07:25:59;;;;;;;;;;;6.80;97.20;;;;;;5005233;28;1910;-72
2022/11/12 07:28:28;;;;;;;;;;;6.90;97.30;;;;;;5003922;28;1152;-71
2022/11/12 07:30:57;;;;;;;;;;;6.90;97.30;;;;;;5003252;28;1853;-72
2022/11/12 07:33:25;;;;;;;;;;;6.90;97.50;;;;;;5003086;28;1940;-71
2022/11/12 07:35:56;;;;;;;;;;;6.90;97.40;;;;;;5001727;28;1096;-72
2022/11/12 07:38:25;;;;;;;;;;;6.90;97.20;;;;;;5004958;28;1976;-75
2022/11/12 07:40:58;;;;;;;;;;;6.90;97.40;;;;;;5002743;28;1668;-72
2022/11/12 07:43:25;;;;;;;;;;;7.00;97.50;;;;;;5002930;28;1816;-70
2022/11/12 07:45:57;;;;;;;;;;;7.00;97.30;;;;;;5005171;28;2007;-70
2022/11/12 07:48:24;;;;;;;;;;;7.00;97.40;;;;;;5005626;28;1120;-72
2022/11/12 07:50:52;;;;;;;;;;;7.10;97.60;;;;;;5006470;28;1267;-71
2022/11/12 07:53:20;;;;;;;;;;;7.10;97.40;;;;;;5006843;28;1159;-70
2022/11/12 07:55:56;;;;;;;;;;;7.40;97.50;;;;;;5007745;28;1529;-73
2022/11/12 07:58:24;;;;;;;;;;;7.20;97.50;;;;;;5005833;28;1369;-71
2022/11/12 08:00:52;;;;;;;;;;;7.20;97.70;;;;;;5004582;28;2302;-71
2022/11/12 08:03:20;;;;;;;;;;;7.30;97.50;;;;;;5008348;28;1269;-71
2022/11/12 08:05:48;;;;;;;;;;;7.20;97.30;;;;;;5007198;28;1960;-71
2022/11/12 08:08:19;;;;;;;;;;;7.30;97.40;;;;;;5003710;28;1441;-71
2022/11/12 08:10:46;;;;;;;;;;;7.40;97.30;;;;;;5001075;28;1731;-71
2022/11/12 08:13:16;;;;;;;;;;;7.40;97.40;;;;;;5000119;28;1928;-71
2022/11/12 08:15:49;;;;;;;;;;;7.40;97.40;;;;;;5001171;28;1684;-71
2022/11/12 08:18:19;;;;;;;;;;;7.50;97.40;;;;;;4998214;28;2026;-70
2022/11/12 08:20:46;;;;;;;;;;;7.50;97.40;;;;;;5001747;28;1514;-71
2022/11/12 08:23:14;;;;;;;;;;;7.50;97.50;;;;;;4999662;28;1516;-71
2022/11/12 08:25:42;;;;;;;;;;;7.60;97.80;;;;;;5005277;28;2009;-71
2022/11/12 08:28:09;;;;;;;;;;;7.60;97.60;;;;;;5003613;28;1439;-72
2022/11/12 08:30:38;;;;;;;;;;;7.70;97.30;;;;;;5002214;28;1941;-71
2022/11/12 08:33:06;;;;;;;;;;;7.70;97.40;;;;;;5001128;28;1474;-71
2022/11/12 08:35:37;;;;;;;;;;;7.70;97.00;;;;;;5007452;28;1664;-70
2022/11/12 08:38:06;;;;;;;;;;;7.80;96.80;;;;;;5003305;28;1652;-71
2022/11/12 08:40:34;;;;;;;;;;;7.90;97.20;;;;;;5002851;28;2003;-71
2022/11/12 08:43:03;;;;;;;;;;;7.90;97.30;;;;;;5008035;28;1558;-71
2022/11/12 08:45:32;;;;;;;;;;;7.90;97.40;;;;;;5004457;28;1907;-71
2022/11/12 08:48:01;;;;;;;;;;;8.10;97.70;;;;;;5003536;28;1619;-71
2022/11/12 08:50:29;;;;;;;;;;;8.10;97.20;;;;;;5004068;28;1964;-72
2022/11/12 08:53:01;;;;;;;;;;;8.20;98.50;;;;;;5004223;28;1903;-73
2022/11/12 08:55:33;;;;;;;;;;;8.30;97.70;;;;;;5004743;28;1552;-71
2022/11/12 08:58:01;;;;;;;;;;;8.40;97.30;;;;;;5006284;28;1670;-67
2022/11/12 09:00:32;;;;;;;;;;;8.40;97.20;;;;;;5009809;28;1514;-73
2022/11/12 09:03:01;;;;;;;;;;;8.50;97.80;;;;;;5019198;28;1237;-74
2022/11/12 09:05:28;;;;;;;;;;;8.50;97.00;;;;;;5014208;28;2001;-73
2022/11/12 09:07:56;;;;;;;;;;;8.70;97.50;;;;;;5006317;28;1847;-73
2022/11/12 09:10:24;;;;;;;;;;;8.80;97.00;;;;;;5004181;28;1939;-72
2022/11/12 09:12:52;;;;;;;;;;;8.80;96.40;;;;;;4997935;28;1329;-72
2022/11/12 09:15:20;;;;;;;;;;;8.80;95.30;;;;;;5003680;28;1120;-72
2022/11/12 09:18:07;;;;;;;;;;;8.90;96.40;;;;;;5006687;28;1313;-72
2022/11/12 09:20:35;;;;;;;;;;;9.00;96.10;;;;;;5007412;28;1049;-73
2022/11/12 09:23:04;;;;;;;;;;;9.10;95.20;;;;;;5004722;28;1756;-72
2022/11/12 09:25:31;;;;;;;;;;;9.10;94.90;;;;;;5006207;28;1918;-72
2022/11/12 09:28:05;;;;;;;;;;;9.20;95.40;;;;;;5002625;28;1605;-71
2022/11/12 09:30:33;;;;;;;;;;;9.10;94.90;;;;;;4998068;28;1636;-72
2022/11/12 09:33:00;;;;;;;;;;;9.10;94.60;;;;;;5001153;28;1234;-72
2022/11/12 09:35:30;;;;;;;;;;;9.20;94.40;;;;;;5003684;28;1684;-73
2022/11/12 09:37:58;;;;;;;;;;;9.20;94.00;;;;;;5002471;28;1480;-73
2022/11/12 09:40:31;;;;;;;;;;;9.20;93.80;;;;;;4997895;28;1086;-72
2022/11/12 09:42:59;;;;;;;;;;;9.30;93.70;;;;;;5001893;28;1723;-74
2022/11/12 09:45:29;;;;;;;;;;;9.30;93.30;;;;;;5006924;28;1002;-73
2022/11/12 09:47:58;;;;;;;;;;;9.40;94.30;;;;;;5003582;28;1910;-73
2022/11/12 09:50:28;;;;;;;;;;;9.60;94.00;;;;;;5006821;28;1092;-75
2022/11/12 09:53:00;;;;;;;;;;;9.60;94.00;;;;;;5005717;28;2007;-72
2022/11/12 09:55:30;;;;;;;;;;;9.60;93.40;;;;;;5006123;28;965;-72
2022/11/12 09:57:57;;;;;;;;;;;9.70;94.50;;;;;;4997453;28;1935;-72
2022/11/12 10:00:25;;;;;;;;;;;9.80;93.20;;;;;;4999954;28;1743;-72
2022/11/12 10:02:55;;;;;;;;;;;9.80;92.90;;;;;;5005929;28;1675;-72
2022/11/12 10:05:25;;;;;;;;;;;9.90;93.30;;;;;;5004573;28;1064;-71
2022/11/12 10:08:03;;;;;;;;;;;10.00;92.50;;;;;;4998497;28;1903;-72
2022/11/12 10:10:34;;;;;;;;;;;10.20;92.30;;;;;;5000231;28;998;-73
2022/11/12 10:13:10;;;;;;;;;;;10.20;92.00;;;;;;5008003;28;1748;-72
2022/11/12 10:18:31;;;;;;;;;;;10.30;92.30;;;;;;5003936;28;1717;-73
2022/11/12 10:21:02;;;;;;;;;;;10.40;91.90;;;;;;5004828;28;1292;-73
2022/11/12 10:23:36;;;;;;;;;;;10.40;92.00;;;;;;5004686;28;1727;-71
2022/11/12 10:26:10;;;;;;;;;;;10.50;92.00;;;;;;5003899;28;1926;-72
2022/11/12 10:28:39;;;;;;;;;;;10.60;91.50;;;;;;5000963;28;1036;-72
2022/11/12 10:31:10;;;;;;;;;;;10.70;91.30;;;;;;5003542;28;1332;-72
2022/11/12 10:33:38;;;;;;;;;;;10.80;91.50;;;;;;5003653;28;1204;-71
2022/11/12 10:36:13;;;;;;;;;;;10.80;90.90;;;;;;5001692;28;963;-71
2022/11/12 10:38:44;;;;;;;;;;;10.80;90.70;;;;;;5002808;28;1739;-72
2022/11/12 10:41:19;;;;;;;;;;;10.90;90.50;;;;;;5004141;28;1259;-72
2022/11/12 10:43:53;;;;;;;;;;;11.00;90.50;;;;;;5003186;28;1081;-71
2022/11/12 10:46:21;;;;;;;;;;;11.10;90.50;;;;;;4995908;28;1918;-72
2022/11/12 10:48:53;;;;;;;;;;;11.20;90.20;;;;;;5002087;28;1681;-71
2022/11/12 10:51:25;;;;;;;;;;;11.10;90.10;;;;;;5002476;28;1269;-73
2022/11/12 10:53:54;;;;;;;;;;;11.10;90.00;;;;;;4998424;28;1078;-73
2022/11/12 10:56:27;;;;;;;;;;;11.10;90.10;;;;;;5008531;28;1057;-73
2022/11/12 10:59:11;;;;;;;;;;;11.10;90.30;;;;;;5005444;28;1160;-71
2022/11/12 11:01:38;;;;;;;;;;;11.10;90.10;;;;;;5000282;28;1276;-71
2022/11/12 11:04:16;;;;;;;;;;;11.20;90.20;;;;;;5005240;28;1129;-72
2022/11/12 11:06:43;;;;;;;;;;;11.20;90.20;;;;;;5004300;28;1914;-73
2022/11/12 11:09:16;;;;;;;;;;;11.30;90.10;;;;;;5015964;28;1056;-73
2022/11/12 11:11:48;;;;;;;;;;;11.40;90.20;;;;;;5008629;28;1379;-72
2022/11/12 11:14:26;;;;;;;;;;;11.40;89.80;;;;;;5002154;28;1093;-73
2022/11/12 11:16:55;;;;;;;;;;;11.50;90.10;;;;;;4999081;28;1136;-71
2022/11/12 11:19:28;;;;;;;;;;;11.50;89.60;;;;;;4995492;28;1082;-72
2022/11/12 11:22:03;;;;;;;;;;;11.50;90.10;;;;;;5002780;28;1508;-72
2022/11/12 11:24:36;;;;;;;;;;;11.50;90.00;;;;;;5004798;28;1084;-72
2022/11/12 11:27:07;;;;;;;;;;;11.70;89.90;;;;;;5004182;28;1898;-72
2022/11/12 11:29:41;;;;;;;;;;;11.80;89.80;;;;;;5003841;28;1106;-72
2022/11/12 11:32:15;;;;;;;;;;;11.80;89.70;;;;;;5005373;28;1385;-72
2022/11/12 11:34:46;;;;;;;;;;;11.80;89.70;;;;;;5007598;28;1109;-72
2022/11/12 11:37:22;;;;;;;;;;;11.90;89.30;;;;;;5009025;28;1036;-72
2022/11/12 11:39:53;;;;;;;;;;;11.80;89.50;;;;;;4996371;28;1005;-73
2022/11/12 11:42:29;;;;;;;;;;;11.90;89.50;;;;;;5002211;28;1233;-73
2022/11/12 11:45:02;;;;;;;;;;;11.90;89.20;;;;;;5002787;28;1230;-72
2022/11/12 11:47:37;;;;;;;;;;;11.90;89.20;;;;;;5001738;28;1918;-72
2022/11/12 11:50:27;;;;;;;;;;;11.90;89.30;;;;;;5002422;28;2205;-73
2022/11/12 11:53:01;;;;;;;;;;;11.90;89.60;;;;;;5004480;28;1308;-73
2022/11/12 11:55:35;;;;;;;;;;;11.90;89.40;;;;;;5003377;28;1814;-74
2022/11/12 11:58:06;;;;;;;;;;;12.00;89.10;;;;;;4998198;28;1085;-74
2022/11/12 12:00:39;;;;;;;;;;;12.00;89.40;;;;;;5010569;28;2295;-73
2022/11/12 12:03:16;;;;;;;;;;;12.00;89.50;;;;;;5006561;28;1418;-73
2022/11/12 12:05:47;;;;;;;;;;;12.00;89.10;;;;;;4997816;28;1037;-72
2022/11/12 12:08:18;;;;;;;;;;;12.00;89.50;;;;;;5016292;28;1993;-73
2022/11/12 12:10:55;;;;;;;;;;;12.10;89.00;;;;;;5023806;28;990;-73
2022/11/12 12:13:44;;;;;;;;;;;12.10;88.90;;;;;;5023583;28;1038;-72
2022/11/12 12:16:24;;;;;;;;;;;12.10;88.70;;;;;;5016206;28;1124;-72
2022/11/12 12:18:56;;;;;;;;;;;12.00;88.60;;;;;;5020515;28;982;-73
2022/11/12 12:21:24;;;;;;;;;;;12.00;88.80;;;;;;5023657;28;1299;-72
2022/11/12 12:23:55;;;;;;;;;;;12.00;88.80;;;;;;5026827;28;1089;-72
2022/11/12 12:26:26;;;;;;;;;;;11.90;89.10;;;;;;5024732;28;1623;-73
2022/11/12 12:28:56;;;;;;;;;;;11.90;89.70;;;;;;5024261;28;1969;-73
2022/11/12 12:31:25;;;;;;;;;;;11.90;89.90;;;;;;5026543;28;1303;-73
2022/11/12 12:33:55;;;;;;;;;;;11.80;89.60;;;;;;5015570;28;1136;-73
2022/11/12 12:36:25;;;;;;;;;;;11.70;90.00;;;;;;5015623;28;1034;-73
2022/11/12 12:38:55;;;;;;;;;;;11.80;90.00;;;;;;5018955;28;1016;-73
2022/11/12 12:41:26;;;;;;;;;;;11.70;90.00;;;;;;5002273;28;1311;-73
2022/11/12 12:43:57;;;;;;;;;;;11.60;90.20;;;;;;4998875;28;1631;-73
2022/11/12 12:46:26;;;;;;;;;;;11.60;90.40;;;;;;5007377;28;1085;-72
2022/11/12 12:48:55;;;;;;;;;;;11.60;90.50;;;;;;5002933;28;1995;-73
2022/11/12 12:51:23;;;;;;;;;;;11.60;90.50;;;;;;5011022;28;1260;-73
2022/11/12 12:53:51;;;;;;;;;;;11.70;90.50;;;;;;5010616;28;1137;-72
2022/11/12 12:56:37;;;;;;;;;;;11.60;90.70;;;;;;5003605;28;981;-73
2022/11/12 12:59:17;;;;;;;;;;;11.60;90.70;;;;;;5005303;28;1077;-72
2022/11/12 13:01:52;;;;;;;;;;;11.70;90.50;;;;;;5010679;28;1287;-73
2022/11/12 13:04:45;;;;;;;;;;;11.80;90.10;;;;;;5003767;28;1721;-72
2022/11/12 13:07:13;;;;;;;;;;;11.80;90.70;;;;;;5008815;28;1097;-73
2022/11/12 13:09:40;;;;;;;;;;;11.80;90.50;;;;;;5002025;28;1907;-73
2022/11/12 13:12:23;;;;;;;;;;;11.80;90.60;;;;;;5005573;28;1368;-72
2022/11/12 13:14:58;;;;;;;;;;;11.80;90.70;;;;;;5010518;28;1022;-73
2022/11/12 13:17:45;;;;;;;;;;;11.80;90.80;;;;;;5005308;28;1031;-72
2022/11/12 13:20:31;;;;;;;;;;;11.90;90.70;;;;;;5026353;28;1088;-72
2022/11/12 13:22:58;;;;;;;;;;;11.90;90.70;;;;;;5006849;28;1316;-72
2022/11/12 13:25:27;;;;;;;;;;;11.90;90.50;;;;;;5000700;28;1127;-72
2022/11/12 13:28:05;;;;;;;;;;;12.00;90.50;;;;;;5007571;28;1918;-73
2022/11/12 13:30:51;;;;;;;;;;;12.00;90.50;;;;;;5003835;28;1050;-72
2022/11/12 13:33:24;;;;;;;;;;;12.10;90.70;;;;;;5005770;28;1402;-72
2022/11/12 13:36:12;;;;;;;;;;;12.10;90.70;;;;;;4999046;28;1074;-72
2022/11/12 13:38:39;;;;;;;;;;;12.00;90.70;;;;;;5005967;28;1126;-72
2022/11/12 13:41:11;;;;;;;;;;;12.00;90.70;;;;;;5003297;28;1289;-72
2022/11/12 13:43:40;;;;;;;;;;;12.00;90.80;;;;;;5007194;28;990;-73
2022/11/12 13:46:24;;;;;;;;;;;12.10;90.80;;;;;;4997164;28;986;-72
2022/11/12 13:48:56;;;;;;;;;;;12.10;90.80;;;;;;5002149;28;1993;-71
2022/11/12 13:51:29;;;;;;;;;;;12.00;90.80;;;;;;5003346;28;1381;-71
2022/11/12 13:53:57;;;;;;;;;;;12.00;90.80;;;;;;5004165;28;1006;-73
2022/11/12 13:56:26;;;;;;;;;;;12.10;90.60;;;;;;4997281;28;1091;-73
2022/11/12 13:58:54;;;;;;;;;;;12.10;90.50;;;;;;5005095;28;1073;-73
2022/11/12 14:01:23;;;;;;;;;;;12.10;90.50;;;;;;5010821;28;1290;-72
2022/11/12 14:03:51;;;;;;;;;;;12.10;90.70;;;;;;5002180;28;1073;-73
2022/11/12 14:06:24;;;;;;;;;;;12.00;90.90;;;;;;5005365;28;1014;-73
2022/11/12 14:08:59;;;;;;;;;;;12.00;91.10;;;;;;4998020;28;1898;-73
2022/11/12 14:11:51;;;;;;;;;;;12.00;91.10;;;;;;4997530;28;1426;-72
2022/11/12 14:14:22;;;;;;;;;;;12.00;91.20;;;;;;4992265;28;1727;-71
2022/11/12 14:16:54;;;;;;;;;;;11.90;90.70;;;;;;5003265;28;1680;-71
2022/11/12 14:19:41;;;;;;;;;;;11.90;90.80;;;;;;5005787;28;1724;-71
2022/11/12 14:22:14;;;;;;;;;;;11.80;90.70;;;;;;5004522;28;1731;-70
2022/11/12 14:24:42;;;;;;;;;;;11.80;90.60;;;;;;5002669;28;1708;-72
2022/11/12 14:27:33;;;;;;;;;;;11.80;90.80;;;;;;5000359;28;1154;-71
2022/11/12 14:30:14;;;;;;;;;;;11.70;91.00;;;;;;5000668;28;1906;-71
2022/11/12 14:32:42;;;;;;;;;;;11.60;90.90;;;;;;4996817;28;1371;-70
2022/11/12 14:35:18;;;;;;;;;;;11.60;91.20;;;;;;5005945;28;1504;-70
2022/11/12 14:37:51;;;;;;;;;;;11.60;91.50;;;;;;5005465;28;1541;-71
2022/11/12 14:40:19;;;;;;;;;;;11.50;91.20;;;;;;5005645;28;1515;-70
2022/11/12 14:42:46;;;;;;;;;;;11.50;91.50;;;;;;5007198;28;1387;-72
2022/11/12 14:45:15;;;;;;;;;;;11.50;91.40;;;;;;5003921;28;1200;-71
2022/11/12 14:47:43;;;;;;;;;;;11.40;91.40;;;;;;5003436;28;1236;-71
2022/11/12 14:50:13;;;;;;;;;;;11.40;91.80;;;;;;5006752;28;1907;-70
2022/11/12 14:52:42;;;;;;;;;;;11.40;91.50;;;;;;5007497;28;1275;-70
2022/11/12 14:55:15;;;;;;;;;;;11.30;91.80;;;;;;5006418;28;1319;-71
2022/11/12 14:57:43;;;;;;;;;;;11.30;91.70;;;;;;5006509;28;1177;-70
2022/11/12 15:00:20;;;;;;;;;;;11.20;91.70;;;;;;5005835;28;1489;-72
2022/11/12 15:02:49;;;;;;;;;;;11.10;91.80;;;;;;5006520;28;1969;-70
2022/11/12 15:05:26;;;;;;;;;;;11.10;91.60;;;;;;5006554;28;1177;-72
2022/11/12 15:07:56;;;;;;;;;;;11.10;91.80;;;;;;5003600;28;1521;-70
2022/11/12 15:10:36;;;;;;;;;;;10.90;92.10;;;;;;5001557;28;1910;-71
2022/11/12 15:13:04;;;;;;;;;;;10.90;92.50;;;;;;5003464;28;1348;-71
2022/11/12 15:15:33;;;;;;;;;;;10.80;92.50;;;;;;5003214;28;994;-72
2022/11/12 15:18:02;;;;;;;;;;;10.80;92.00;;;;;;5001629;28;1093;-72
2022/11/12 15:20:30;;;;;;;;;;;10.80;92.10;;;;;;5001033;28;1029;-72
2022/11/12 15:22:57;;;;;;;;;;;10.60;92.50;;;;;;4997557;28;1379;-72
2022/11/12 15:25:26;;;;;;;;;;;10.50;92.70;;;;;;5003682;28;1696;-72